createdAt,value
2023-12-02T00:00:51.621Z,100120.56
2023-12-02T00:03:18.065Z,100122.09
2023-12-02T00:05:44.449Z,100121.34
2023-12-02T00:08:10.788Z,100121.75
2023-12-02T00:10:37.158Z,100121.34
2023-12-02T00:13:03.506Z,100124.47
2023-12-02T00:15:29.935Z,100115.56
2023-12-02T00:17:56.462Z,100128.78
2023-12-02T00:20:22.879Z,100125.66
2023-12-02T00:22:49.252Z,100124.91
2023-12-02T00:25:15.586Z,100136.91
2023-12-02T00:27:41.919Z,100133.91
2023-12-02T00:30:08.301Z,100122.19
2023-12-02T00:32:34.690Z,100126.84
2023-12-02T00:35:01.055Z,100132.69
2023-12-02T00:37:27.400Z,100128.78
2023-12-02T00:39:53.762Z,100129.56
2023-12-02T00:42:20.183Z,100130.75
2023-12-02T00:44:46.593Z,100125.78
2023-12-02T00:47:12.997Z,100129.56
2023-12-02T00:49:39.465Z,100126.09
2023-12-02T00:52:05.828Z,100129.22
2023-12-02T00:54:32.269Z,100127.25
2023-12-02T00:56:58.677Z,100127.72
2023-12-02T00:59:25.073Z,100126.84
2023-12-02T01:01:51.520Z,100119.91
2023-12-02T01:04:17.914Z,100121.84
2023-12-02T01:06:44.305Z,100128.47
2023-12-02T01:09:10.699Z,100127.25
2023-12-02T01:11:37.076Z,100133.13
2023-12-02T01:14:03.448Z,100133.91
2023-12-02T01:16:29.788Z,100136.25
2023-12-02T01:18:56.216Z,100137.78
2023-12-02T01:21:22.665Z,100148.63
2023-12-02T01:23:49.086Z,100147.09
2023-12-02T01:26:15.471Z,100152.50
2023-12-02T01:28:41.846Z,100154.44
2023-12-02T01:31:08.277Z,100149.03
2023-12-02T01:33:34.736Z,100151.00
2023-12-02T01:36:01.194Z,100147.53
2023-12-02T01:38:27.562Z,100157.16
2023-12-02T01:40:53.917Z,100166.50
2023-12-02T01:43:20.292Z,100167.25
2023-12-02T01:45:46.627Z,100161.84
2023-12-02T01:48:13.061Z,100167.56
2023-12-02T01:50:39.482Z,100171.16
2023-12-02T01:53:05.826Z,100173.84
2023-12-02T01:55:32.172Z,100179.69
2023-12-02T01:57:58.511Z,100186.94
2023-12-02T02:00:24.884Z,100196.59
2023-12-02T02:02:51.291Z,100186.63
2023-12-02T02:05:17.658Z,100195.50
2023-12-02T02:07:44.057Z,100199.00
2023-12-02T02:10:10.400Z,100200.16
2023-12-02T02:12:36.784Z,100209.06
2023-12-02T02:15:03.212Z,100210.25
2023-12-02T02:17:29.668Z,100214.47
2023-12-02T02:19:56.021Z,100217.59
2023-12-02T02:22:22.358Z,100217.19
2023-12-02T02:24:48.706Z,100221.50
2023-12-02T02:27:15.116Z,100230.38
2023-12-02T02:29:41.507Z,100235.78
2023-12-02T02:32:07.879Z,100229.19
2023-12-02T02:34:34.269Z,100235.78
2023-12-02T02:37:00.692Z,100234.63
2023-12-02T02:39:27.095Z,100238.50
2023-12-02T02:41:53.531Z,100245.44
2023-12-02T02:44:19.955Z,100243.19
2023-12-02T02:46:46.298Z,100250.09
2023-12-02T02:49:12.782Z,100248.59
2023-12-02T02:51:39.243Z,100250.19
2023-12-02T02:54:05.648Z,100250.19
2023-12-02T02:56:31.991Z,100245.13
2023-12-02T02:58:58.335Z,100257.91
2023-12-02T03:01:24.737Z,100251.31
2023-12-02T03:03:51.159Z,100260.16
2023-12-02T03:06:17.548Z,100265.25
2023-12-02T03:08:43.907Z,100265.25
2023-12-02T03:11:10.260Z,100264.50
2023-12-02T03:13:36.599Z,100264.94
2023-12-02T03:16:02.925Z,100260.25
2023-12-02T03:18:29.356Z,100264.50
2023-12-02T03:20:55.837Z,100258.22
2023-12-02T03:23:22.221Z,100260.59
2023-12-02T03:25:48.564Z,100266.78
2023-12-02T03:28:14.906Z,100277.63
2023-12-02T03:30:41.262Z,100274.91
2023-12-02T03:33:07.800Z,100267.97
2023-12-02T03:35:34.260Z,100277.34
2023-12-02T03:38:00.627Z,100273.06
2023-12-02T03:40:26.987Z,100272.72
2023-12-02T03:42:53.348Z,100273.06
2023-12-02T03:45:19.727Z,100274.56
2023-12-02T03:47:46.156Z,100281.19
2023-12-02T03:50:14.557Z,100286.59
2023-12-02T03:52:41.899Z,100286.69
2023-12-02T03:55:08.270Z,100288.19
2023-12-02T03:57:34.733Z,100291.34
2023-12-02T04:00:01.142Z,100287.78
2023-12-02T04:02:27.604Z,100294.81
2023-12-02T04:04:54.015Z,100294.81
2023-12-02T04:07:20.477Z,100297.53
2023-12-02T04:09:46.885Z,100303.25
2023-12-02T04:12:13.289Z,100298.25
2023-12-02T04:14:39.658Z,100301.31
2023-12-02T04:17:05.999Z,100314.84
2023-12-02T04:19:32.389Z,100311.38
2023-12-02T04:21:58.762Z,100319.19
2023-12-02T04:24:25.131Z,100317.22
2023-12-02T04:26:51.501Z,100325.34
2023-12-02T04:29:17.865Z,100338.13
2023-12-02T04:31:44.263Z,100335.00
2023-12-02T04:34:10.691Z,100337.38
2023-12-02T04:36:37.126Z,100337.00
2023-12-02T04:39:03.519Z,100340.94
2023-12-02T04:41:29.870Z,100343.63
2023-12-02T04:43:56.240Z,100351.00
2023-12-02T04:46:22.573Z,100355.97
2023-12-02T04:48:48.938Z,100350.22
2023-12-02T04:51:15.324Z,100362.25
2023-12-02T04:53:41.687Z,100367.75
2023-12-02T04:56:08.031Z,100375.78
2023-12-02T04:58:34.375Z,100375.00
2023-12-02T05:01:00.733Z,100379.66
2023-12-02T05:03:27.151Z,100386.59
2023-12-02T05:05:53.554Z,100385.06
2023-12-02T05:08:19.908Z,100398.69
2023-12-02T05:10:46.331Z,100400.22
2023-12-02T05:13:12.693Z,100399.81
2023-12-02T05:15:40.525Z,100405.63
2023-12-02T05:18:08.161Z,100415.38
2023-12-02T05:20:34.572Z,100410.22
2023-12-02T05:23:00.903Z,100421.88
2023-12-02T05:25:27.248Z,100415.63
2023-12-02T05:27:53.626Z,100416.06
2023-12-02T05:30:19.978Z,100415.28
2023-12-02T05:32:46.354Z,100421.47
2023-12-02T05:35:12.718Z,100417.66
2023-12-02T05:37:39.065Z,100418.41
2023-12-02T05:40:05.448Z,100430.78
2023-12-02T05:42:31.859Z,100437.72
2023-12-02T05:44:58.318Z,100442.38
2023-12-02T05:47:24.716Z,100443.97
2023-12-02T05:49:51.050Z,100446.69
2023-12-02T05:52:17.420Z,100447.88
2023-12-02T05:54:43.867Z,100457.53
2023-12-02T05:57:10.253Z,100461.03
2023-12-02T05:59:36.625Z,100464.09
2023-12-02T06:02:03.094Z,100466.47
2023-12-02T06:04:29.514Z,100471.88
2023-12-02T06:06:55.895Z,100474.25
2023-12-02T06:09:22.275Z,100482.69
2023-12-02T06:11:48.681Z,100488.19
2023-12-02T06:14:15.075Z,100489.31
2023-12-02T06:16:41.409Z,100500.47
2023-12-02T06:19:07.928Z,100505.13
2023-12-02T06:21:34.383Z,100511.38
2023-12-02T06:24:00.869Z,100509.78
2023-12-02T06:26:27.311Z,100516.03
2023-12-02T06:28:53.648Z,100512.47
2023-12-02T06:31:20.075Z,100515.19
2023-12-02T06:33:46.488Z,100517.16
2023-12-02T06:36:12.915Z,100515.19
2023-12-02T06:38:39.307Z,100527.91
2023-12-02T06:41:05.675Z,100532.19
2023-12-02T06:43:32.004Z,100538.47
2023-12-02T06:45:58.409Z,100536.13
2023-12-02T06:48:24.786Z,100540.84
2023-12-02T06:50:51.268Z,100542.06
2023-12-02T06:53:17.635Z,100545.03
2023-12-02T06:55:43.959Z,100548.53
2023-12-02T06:58:10.306Z,100550.47
2023-12-02T07:00:36.700Z,100555.53
2023-12-02T07:03:03.082Z,100559.78
2023-12-02T07:05:29.557Z,100567.91
2023-12-02T07:07:55.938Z,100576.78
2023-12-02T07:10:22.299Z,100572.56
2023-12-02T07:12:48.680Z,100575.25
2023-12-02T07:15:15.069Z,100584.16
2023-12-02T07:17:41.542Z,100581.00
2023-12-02T07:20:07.948Z,100603.88
2023-12-02T07:22:34.297Z,100599.63
2023-12-02T07:25:00.656Z,100605.81
2023-12-02T07:27:29.746Z,100600.41
2023-12-02T07:32:25.827Z,100602.41
2023-12-02T07:34:52.250Z,100609.28
2023-12-02T07:37:18.615Z,100615.88
2023-12-02T07:39:45.006Z,100619.34
2023-12-02T07:42:11.359Z,100618.66
2023-12-02T07:44:37.720Z,100616.69
2023-12-02T07:47:04.343Z,100623.63
2023-12-02T07:49:30.777Z,100626.69
2023-12-02T07:51:57.200Z,100619.41
2023-12-02T07:54:23.562Z,100622.44
2023-12-02T07:56:49.894Z,100629.03
2023-12-02T07:59:16.307Z,100638.44
2023-12-02T08:01:42.770Z,100632.19
2023-12-02T08:04:09.305Z,100641.41
2023-12-02T08:06:35.700Z,100653.34
2023-12-02T08:09:02.064Z,100654.53
2023-12-02T08:11:28.431Z,100652.31
2023-12-02T08:13:55.568Z,100653.91
2023-12-02T08:16:21.967Z,100653.91
2023-12-02T08:18:48.321Z,100663.56
2023-12-02T08:21:14.681Z,100670.91
2023-12-02T08:23:41.075Z,100672.91
2023-12-02T08:26:07.422Z,100682.50
2023-12-02T08:28:33.837Z,100684.06
2023-12-02T08:31:00.239Z,100684.84
2023-12-02T08:33:26.594Z,100691.81
2023-12-02T08:35:52.944Z,100691.38
2023-12-02T08:38:19.292Z,100704.97
2023-12-02T08:40:45.686Z,100698.31
2023-12-02T08:43:12.064Z,100712.69
2023-12-02T08:45:38.450Z,100715.38
2023-12-02T08:48:04.863Z,100713.44
2023-12-02T08:50:31.251Z,100716.16
2023-12-02T08:52:57.694Z,100720.03
2023-12-02T08:55:24.105Z,100723.50
2023-12-02T08:57:50.536Z,100731.56
2023-12-02T09:00:16.942Z,100731.91
2023-12-02T09:02:43.383Z,100744.28
2023-12-02T09:05:10.001Z,100740.03
2023-12-02T09:07:36.459Z,100746.28
2023-12-02T09:10:02.843Z,100753.56
2023-12-02T09:12:29.229Z,100750.88
2023-12-02T09:14:55.568Z,100751.63
2023-12-02T09:17:24.236Z,100755.47
2023-12-02T09:19:50.705Z,100761.22
2023-12-02T09:22:17.037Z,100765.88
2023-12-02T09:24:43.381Z,100767.47
2023-12-02T09:27:09.718Z,100767.03
2023-12-02T09:29:36.082Z,100775.94
2023-12-02T09:32:02.500Z,100775.94
2023-12-02T09:34:28.890Z,100779.84
2023-12-02T09:36:55.291Z,100781.78
2023-12-02T09:39:21.645Z,100780.47
2023-12-02T09:41:48.008Z,100787.84
2023-12-02T09:44:14.376Z,100789.03
2023-12-02T09:46:40.732Z,100783.94
2023-12-02T09:49:07.163Z,100782.00
2023-12-02T09:51:33.586Z,100789.03
2023-12-02T09:54:00.113Z,100791.72
2023-12-02T09:56:26.480Z,100792.91
2023-12-02T09:58:52.865Z,100794.06
2023-12-02T10:01:19.248Z,100791.34
2023-12-02T10:03:45.589Z,100799.41
2023-12-02T10:06:11.971Z,100795.53
2023-12-02T10:08:38.361Z,100798.63
2023-12-02T10:11:04.767Z,100795.97
2023-12-02T10:13:31.204Z,100791.25
2023-12-02T10:15:57.582Z,100797.38
2023-12-02T10:18:24.047Z,100801.28
2023-12-02T10:20:50.479Z,100809.78
2023-12-02T10:23:16.812Z,100806.69
2023-12-02T10:25:43.226Z,100805.50
2023-12-02T10:28:09.636Z,100802.72
2023-12-02T10:30:35.990Z,100806.19
2023-12-02T10:33:02.425Z,100815.88
2023-12-02T10:35:28.917Z,100814.31
2023-12-02T10:37:55.317Z,100818.19
2023-12-02T10:40:21.696Z,100815.44
2023-12-02T10:42:48.023Z,100815.44
2023-12-02T10:45:14.367Z,100818.16
2023-12-02T10:47:40.759Z,100813.50
2023-12-02T10:50:07.227Z,100813.09
2023-12-02T10:55:02.815Z,100817.34
2023-12-02T10:57:29.201Z,100819.63
2023-12-02T10:59:55.577Z,100809.16
2023-12-02T11:02:21.950Z,100814.56
2023-12-02T11:04:48.285Z,100808.03
2023-12-02T11:07:14.683Z,100813.03
2023-12-02T11:09:41.988Z,100809.50
2023-12-02T11:12:09.455Z,100816.78
2023-12-02T11:14:35.819Z,100816.03
2023-12-02T11:17:02.180Z,100820.28
2023-12-02T11:19:28.566Z,100813.31
2023-12-02T11:21:54.920Z,100809.06
2023-12-02T11:24:21.301Z,100814.47
2023-12-02T11:26:47.690Z,100820.66
2023-12-02T11:29:18.589Z,100820.34
2023-12-02T11:31:45.600Z,100820.34
2023-12-02T11:34:12.008Z,100833.44
2023-12-02T11:36:38.471Z,100838.13
2023-12-02T11:39:04.878Z,100836.53
2023-12-02T11:41:31.267Z,100836.94
2023-12-02T11:43:57.616Z,100834.28
2023-12-02T11:46:23.962Z,100835.41
2023-12-02T11:48:50.465Z,100846.25
2023-12-02T11:51:16.936Z,100843.53
2023-12-02T11:53:43.283Z,100837.34
2023-12-02T11:56:09.628Z,100832.72
2023-12-02T11:58:35.974Z,100835.03
2023-12-02T12:01:02.334Z,100834.22
2023-12-02T12:03:28.749Z,100828.47
2023-12-02T12:05:55.123Z,100833.44
2023-12-02T12:08:23.549Z,100838.88
2023-12-02T12:10:50.518Z,100842.00
2023-12-02T12:13:16.890Z,100843.53
2023-12-02T12:15:43.355Z,100835.03
2023-12-02T12:18:09.975Z,100835.47
2023-12-02T12:20:36.411Z,100845.53
2023-12-02T12:23:02.864Z,100846.59
2023-12-02T12:25:29.235Z,100848.19
2023-12-02T12:27:55.603Z,100854.38
2023-12-02T12:30:21.995Z,100859.84
2023-12-02T12:32:48.431Z,100863.34
2023-12-02T12:35:14.856Z,100874.50
2023-12-02T12:37:41.246Z,100865.66
2023-12-02T12:40:07.612Z,100860.69
2023-12-02T12:42:34.020Z,100849.78
2023-12-02T12:45:00.470Z,100856.00
2023-12-02T12:47:26.811Z,100849.06
2023-12-02T12:49:53.207Z,100844.44
2023-12-02T12:52:19.569Z,100850.25
2023-12-02T12:54:46.012Z,100866.84
2023-12-02T12:57:12.393Z,100863.38
2023-12-02T12:59:38.756Z,100869.19
2023-12-02T13:02:05.157Z,100879.63
2023-12-02T13:04:31.541Z,100875.78
2023-12-02T13:06:57.987Z,100877.66
2023-12-02T13:09:24.374Z,100883.84
2023-12-02T13:11:50.757Z,100885.06
2023-12-02T13:14:17.176Z,100888.16
2023-12-02T13:16:43.560Z,100883.09
2023-12-02T13:19:09.960Z,100888.22
2023-12-02T13:21:36.454Z,100889.00
2023-12-02T13:24:02.957Z,100899.00
2023-12-02T13:26:29.789Z,100894.75
2023-12-02T13:28:56.313Z,100895.53
2023-12-02T13:31:22.669Z,100897.06
2023-12-02T13:33:49.078Z,100901.31
2023-12-02T13:36:15.517Z,100905.53
2023-12-02T13:38:41.878Z,100896.69
2023-12-02T13:41:08.225Z,100903.31
2023-12-02T13:43:34.562Z,100900.53
2023-12-02T13:46:01.761Z,100907.53
2023-12-02T13:48:28.229Z,100902.47
2023-12-02T13:50:54.606Z,100913.72
2023-12-02T13:53:20.936Z,100916.03
2023-12-02T13:55:47.264Z,100911.78
2023-12-02T13:58:13.613Z,100917.19
2023-12-02T14:00:40.092Z,100918.34
2023-12-02T14:03:06.600Z,100923.03
2023-12-02T14:05:33.142Z,100922.66
2023-12-02T14:07:59.535Z,100925.38
2023-12-02T14:10:25.897Z,100926.13
2023-12-02T14:12:52.293Z,100930.38
2023-12-02T14:15:18.662Z,100930.38
2023-12-02T14:17:45.054Z,100937.03
2023-12-02T14:20:11.424Z,100933.91
2023-12-02T14:22:37.811Z,100939.69
2023-12-02T14:25:04.156Z,100940.06
2023-12-02T14:27:30.525Z,100943.56
2023-12-02T14:29:56.876Z,100940.44
2023-12-02T14:32:23.227Z,100942.03
2023-12-02T14:34:49.591Z,100938.56
2023-12-02T14:37:15.953Z,100950.97
2023-12-02T14:39:42.304Z,100954.88
2023-12-02T14:42:09.109Z,100956.38
2023-12-02T14:44:35.519Z,100967.59
2023-12-02T14:47:01.854Z,100965.66
2023-12-02T14:49:28.250Z,100975.72
2023-12-02T14:51:54.623Z,100969.13
2023-12-02T14:54:21.010Z,100981.53
2023-12-02T14:56:47.376Z,100980.34
2023-12-02T14:59:13.745Z,100992.34
2023-12-02T15:01:40.264Z,100995.84
2023-12-02T15:04:06.721Z,100995.84
2023-12-02T15:06:33.338Z,101005.13
2023-12-02T15:08:59.746Z,101001.69
2023-12-02T15:11:26.104Z,101009.38
2023-12-02T15:13:52.524Z,101006.66
2023-12-02T15:16:18.893Z,101014.03
2023-12-02T15:18:45.297Z,101028.75
2023-12-02T15:21:11.724Z,101023.34
2023-12-02T15:23:38.072Z,101026.84
2023-12-02T15:26:04.411Z,101024.50
2023-12-02T15:28:30.760Z,101036.16
2023-12-02T15:30:57.113Z,101036.50
2023-12-02T15:33:23.528Z,101039.63
2023-12-02T15:35:49.880Z,101045.78
2023-12-02T15:38:16.260Z,101048.53
2023-12-02T15:40:42.638Z,101055.88
2023-12-02T15:43:09.083Z,101063.59
2023-12-02T15:45:35.515Z,101064.78
2023-12-02T15:48:02.072Z,101074.47
2023-12-02T15:50:28.546Z,101076.00
2023-12-02T15:52:54.914Z,101084.13
2023-12-02T15:55:21.273Z,101085.66
2023-12-02T15:57:47.621Z,101077.59
2023-12-02T16:00:14.057Z,101082.22
2023-12-02T16:02:40.431Z,101080.28
2023-12-02T16:05:06.844Z,101089.97
2023-12-02T16:07:33.283Z,101089.59
2023-12-02T16:09:59.649Z,101099.66
2023-12-02T16:12:26.044Z,101099.25
2023-12-02T16:14:52.427Z,101101.97
2023-12-02T16:17:18.802Z,101104.66
2023-12-02T16:19:45.213Z,101104.25
2023-12-02T16:22:11.594Z,101108.13
2023-12-02T16:24:37.980Z,101112.38
2023-12-02T16:27:04.373Z,101117.41
2023-12-02T16:29:30.744Z,101118.56
2023-12-02T16:31:57.099Z,101122.44
2023-12-02T16:34:23.528Z,101125.56
2023-12-02T16:36:49.944Z,101129.44
2023-12-02T16:39:16.362Z,101132.94
2023-12-02T16:41:42.731Z,101136.78
2023-12-02T16:44:09.057Z,101141.38
2023-12-02T16:46:35.478Z,101142.19
2023-12-02T16:49:01.949Z,101143.41
2023-12-02T16:51:28.370Z,101147.66
2023-12-02T16:53:54.725Z,101159.59
2023-12-02T16:56:22.292Z,101159.59
2023-12-02T16:58:49.003Z,101156.50
2023-12-02T17:01:15.450Z,101153.44
2023-12-02T17:03:41.839Z,101160.41
2023-12-02T17:06:08.211Z,101172.03
2023-12-02T17:08:34.601Z,101176.28
2023-12-02T17:11:00.940Z,101169.72
2023-12-02T17:13:27.349Z,101176.66
2023-12-02T17:15:53.716Z,101173.19
2023-12-02T17:18:20.160Z,101170.47
2023-12-02T17:20:46.579Z,101178.97
2023-12-02T17:23:12.918Z,101179.78
2023-12-02T17:25:39.283Z,101185.22
2023-12-02T17:28:05.628Z,101186.38
2023-12-02T17:30:32.083Z,101184.06
2023-12-02T17:32:58.516Z,101182.88
2023-12-02T17:35:24.906Z,101188.28
2023-12-02T17:37:51.379Z,101187.19
2023-12-02T17:40:17.727Z,101189.47
2023-12-02T17:42:44.089Z,101189.47
2023-12-02T17:45:10.479Z,101189.84
2023-12-02T17:47:36.898Z,101194.88
2023-12-02T17:50:03.290Z,101193.31
2023-12-02T17:52:29.642Z,101192.16
2023-12-02T17:54:55.985Z,101194.88
2023-12-02T17:57:22.364Z,101189.50
2023-12-02T17:59:48.730Z,101190.66
2023-12-02T18:02:15.102Z,101189.47
2023-12-02T18:04:41.556Z,101186.41
2023-12-02T18:07:08.076Z,101190.63
2023-12-02T18:09:34.479Z,101185.22
2023-12-02T18:12:00.881Z,101193.75
2023-12-02T18:14:27.252Z,101195.66
2023-12-02T18:16:53.582Z,101203.38
2023-12-02T18:19:20.240Z,101199.16
2023-12-02T18:21:46.798Z,101203.00
2023-12-02T18:24:13.195Z,101203.41
2023-12-02T18:26:39.563Z,101198.81
2023-12-02T18:29:05.909Z,101199.16
2023-12-02T18:31:32.266Z,101206.94
2023-12-02T18:33:58.708Z,101212.69
2023-12-02T18:36:25.258Z,101215.41
2023-12-02T18:38:51.704Z,101219.66
2023-12-02T18:41:18.035Z,101220.09
2023-12-02T18:43:44.369Z,101219.28
2023-12-02T18:46:10.726Z,101223.94
2023-12-02T18:48:37.101Z,101222.75
2023-12-02T18:51:03.538Z,101231.31
2023-12-02T18:53:29.911Z,101227.06
2023-12-02T18:55:56.239Z,101232.47
2023-12-02T18:58:22.584Z,101232.47
2023-12-02T19:00:48.993Z,101234.41
2023-12-02T19:03:15.422Z,101230.53
2023-12-02T19:05:41.787Z,101244.06
2023-12-02T19:08:08.123Z,101240.19
2023-12-02T19:10:34.482Z,101241.72
2023-12-02T19:13:00.856Z,101238.25
2023-12-02T19:15:27.239Z,101242.13
2023-12-02T19:17:53.697Z,101230.88
2023-12-02T19:20:20.090Z,101242.91
2023-12-02T19:22:46.453Z,101245.19
2023-12-02T19:25:12.859Z,101240.19
2023-12-02T19:27:39.290Z,101243.28
2023-12-02T19:30:05.740Z,101248.72
2023-12-02T19:32:32.171Z,101249.47
2023-12-02T19:34:58.534Z,101249.09
2023-12-02T19:37:24.892Z,101245.63
2023-12-02T19:39:51.737Z,101252.56
2023-12-02T19:42:18.104Z,101253.00
2023-12-02T19:44:44.459Z,101258.00
2023-12-02T19:47:10.822Z,101262.25
2023-12-02T19:49:37.224Z,101276.16
2023-12-02T19:52:03.580Z,101271.53
2023-12-02T19:54:29.948Z,101272.31
2023-12-02T19:56:56.311Z,101271.50
2023-12-02T19:59:22.708Z,101275.00
2023-12-02T20:01:49.087Z,101270.72
2023-12-02T20:04:15.549Z,101270.38
2023-12-02T20:06:42.148Z,101271.50
2023-12-02T20:09:08.756Z,101267.66
2023-12-02T20:11:44.500Z,101273.06
2023-12-02T20:14:12.544Z,101275.41
2023-12-02T20:16:38.872Z,101276.25
2023-12-02T20:19:05.274Z,101274.28
2023-12-02T20:21:31.690Z,101276.19
2023-12-02T20:23:58.065Z,101268.53
2023-12-02T20:26:24.405Z,101268.47
2023-12-02T20:28:50.757Z,101278.97
2023-12-02T20:31:17.120Z,101281.28
2023-12-02T20:33:43.559Z,101289.81
2023-12-02T20:36:09.999Z,101295.25
2023-12-02T20:38:36.357Z,101297.19
2023-12-02T20:41:02.712Z,101299.13
2023-12-02T20:43:29.049Z,101291.00
2023-12-02T20:45:55.410Z,101289.84
2023-12-02T20:48:21.796Z,101287.53
2023-12-02T20:50:48.188Z,101294.84
2023-12-02T20:53:14.537Z,101298.72
2023-12-02T20:55:40.897Z,101302.19
2023-12-02T20:58:07.241Z,101299.91
2023-12-02T21:00:33.623Z,101296.78
2023-12-02T21:03:00.027Z,101302.66
2023-12-02T21:05:26.389Z,101297.59
2023-12-02T21:07:52.785Z,101306.16
2023-12-02T21:10:19.144Z,101303.81
2023-12-02T21:12:45.516Z,101304.59
2023-12-02T21:15:11.998Z,101309.25
2023-12-02T21:17:38.383Z,101297.63
2023-12-02T21:20:04.744Z,101306.16
2023-12-02T21:22:31.101Z,101297.56
2023-12-02T21:24:57.472Z,101302.63
2023-12-02T21:27:23.927Z,101302.22
2023-12-02T21:29:50.328Z,101309.22
2023-12-02T21:32:16.665Z,101307.31
2023-12-02T21:34:43.071Z,101302.25
2023-12-02T21:37:09.454Z,101303.03
2023-12-02T21:39:35.871Z,101296.06
2023-12-02T21:42:02.216Z,101303.81
2023-12-02T21:44:28.603Z,101310.38
2023-12-02T21:46:54.978Z,101303.47
2023-12-02T21:49:21.396Z,101308.84
2023-12-02T21:51:47.875Z,101303.44
2023-12-02T21:54:14.381Z,101298.81
2023-12-02T21:56:40.721Z,101299.22
2023-12-02T21:59:07.092Z,101307.72
2023-12-02T22:01:33.473Z,101298.44
2023-12-02T22:03:59.947Z,101301.97
2023-12-02T22:06:26.415Z,101305.00
2023-12-02T22:08:52.804Z,101301.16
2023-12-02T22:11:19.144Z,101291.47
2023-12-02T22:13:45.504Z,101298.81
2023-12-02T22:16:11.837Z,101303.13
2023-12-02T22:18:38.202Z,101300.41
2023-12-02T22:21:05.737Z,101300.41
2023-12-02T22:23:32.070Z,101310.88
2023-12-02T22:25:58.413Z,101310.88
2023-12-02T22:28:24.764Z,101314.72
2023-12-02T22:30:51.177Z,101320.50
2023-12-02T22:33:17.727Z,101321.69
2023-12-02T22:35:44.183Z,101316.66
2023-12-02T22:38:10.528Z,101328.25
2023-12-02T22:40:36.883Z,101324.00
2023-12-02T22:43:03.416Z,101330.59
2023-12-02T22:45:29.858Z,101325.16
2023-12-02T22:47:56.343Z,101325.56
2023-12-02T22:50:22.737Z,101326.69
2023-12-02T22:52:49.103Z,101328.19
2023-12-02T22:55:15.439Z,101339.81
2023-12-02T22:57:41.819Z,101334.75
2023-12-02T23:00:08.336Z,101332.03
2023-12-02T23:02:34.765Z,101334.78
2023-12-02T23:05:01.149Z,101332.81
2023-12-02T23:07:27.496Z,101337.84
2023-12-02T23:09:53.888Z,101339.38
2023-12-02T23:12:20.289Z,101340.13
2023-12-02T23:14:46.646Z,101345.56
2023-12-02T23:17:13.004Z,101353.28
2023-12-02T23:19:39.415Z,101347.09
2023-12-02T23:22:05.776Z,101350.59
2023-12-02T23:24:32.116Z,101347.88
2023-12-02T23:26:58.491Z,101347.88
2023-12-02T23:29:24.872Z,101344.78
2023-12-02T23:31:51.245Z,101341.69
2023-12-02T23:34:17.723Z,101340.13
2023-12-02T23:36:44.168Z,101346.31
2023-12-02T23:39:10.593Z,101350.22
2023-12-02T23:41:36.959Z,101351.75
2023-12-02T23:44:03.291Z,101351.75
2023-12-02T23:46:29.630Z,101348.66
2023-12-02T23:48:56.034Z,101340.13
2023-12-02T23:51:22.453Z,101345.94
2023-12-02T23:53:48.797Z,101347.09
2023-12-02T23:56:15.143Z,101334.72
2023-12-02T23:58:41.484Z,101339.34
